Time;durP1;ratioP1;P1;durP2;ratioP2;P2;SDS_P1;SDS_P2;PMS_P1;PMS_P2;Temp;Humidity;BMP_temperature;BMP_pressure;BME280_temperature;BME280_humidity;BME280_pressure;Samples;Min_cycle;Max_cycle;Signal;HPM_P1;HPM_P2
2022/07/17 00:00:26;;;;;;;0.10;0.10;;;12.00;99.90;;;;;;5148033;28;20043;-89
2022/07/17 00:02:53;;;;;;;0.10;0.10;;;12.00;99.90;;;;;;5147666;28;20122;-89
2022/07/17 00:05:20;;;;;;;0.17;0.17;;;11.90;99.90;;;;;;5147810;28;20046;-88
2022/07/17 00:07:50;;;;;;;0.10;0.10;;;12.00;99.90;;;;;;5165078;28;20040;-88
2022/07/17 00:10:16;;;;;;;0.17;0.17;;;11.90;99.90;;;;;;5163986;28;20040;-89
2022/07/17 00:12:44;;;;;;;0.10;0.10;;;11.90;99.90;;;;;;5131092;28;20046;-89
2022/07/17 00:15:11;;;;;;;0.20;0.20;;;11.80;99.90;;;;;;5129574;28;20044;-88
2022/07/17 00:17:38;;;;;;;0.10;0.10;;;11.80;99.90;;;;;;5147621;28;20123;-89
2022/07/17 00:20:06;;;;;;;0.20;0.20;;;11.70;99.90;;;;;;5147818;28;20074;-88
2022/07/17 00:22:34;;;;;;;0.10;0.10;;;11.70;99.90;;;;;;5131088;28;20040;-89
2022/07/17 00:25:00;;;;;;;0.20;0.10;;;11.70;99.90;;;;;;5147946;28;20039;-89
2022/07/17 00:27:27;;;;;;;0.10;0.10;;;11.70;99.90;;;;;;5148164;28;20043;-89
2022/07/17 00:29:54;;;;;;;0.10;0.10;;;11.70;99.90;;;;;;5148128;28;20377;-89
2022/07/17 00:32:23;;;;;;;0.20;0.20;;;11.70;99.90;;;;;;5130813;28;20081;-88
2022/07/17 00:34:50;;;;;;;0.10;0.10;;;11.70;99.90;;;;;;5147362;28;21173;-89
2022/07/17 00:37:17;;;;;;;0.20;0.20;;;11.80;99.90;;;;;;5164520;28;20147;-88
2022/07/17 00:39:44;;;;;;;0.17;0.17;;;11.70;99.90;;;;;;5130825;28;20493;-88
2022/07/17 00:42:15;;;;;;;0.10;0.10;;;11.80;99.90;;;;;;5130605;28;20046;-89
2022/07/17 00:44:45;;;;;;;0.15;0.15;;;11.70;99.90;;;;;;5147915;28;20043;-88
2022/07/17 00:47:18;;;;;;;0.43;0.15;;;11.70;99.90;;;;;;5147348;28;20488;-89
2022/07/17 00:49:45;;;;;;;0.30;0.20;;;11.70;99.90;;;;;;5130803;28;20400;-88
2022/07/17 00:52:13;;;;;;;0.00;0.00;;;11.70;99.90;;;;;;5147993;28;20123;-89
2022/07/17 00:54:42;;;;;;;0.30;0.30;;;11.60;99.90;;;;;;5130956;28;20128;-89
2022/07/17 00:57:13;;;;;;;0.10;0.10;;;11.50;99.90;;;;;;5147416;28;20052;-89
2022/07/17 00:59:40;;;;;;;0.17;0.17;;;11.50;99.90;;;;;;5148720;28;20059;-89
2022/07/17 01:02:11;;;;;;;0.20;0.15;;;11.50;99.90;;;;;;5133959;28;20035;-89
2022/07/17 01:04:38;;;;;;;0.10;0.10;;;11.40;99.90;;;;;;5151352;28;20034;-88
2022/07/17 01:07:06;;;;;;;0.20;0.20;;;11.40;99.90;;;;;;5151075;28;20035;-90
2022/07/17 01:09:34;;;;;;;0.10;0.10;;;11.30;99.90;;;;;;5151388;28;20552;-89
2022/07/17 01:12:01;;;;;;;0.00;0.00;;;11.30;99.90;;;;;;5133689;28;20047;-88
2022/07/17 01:14:28;;;;;;;0.10;0.10;;;11.20;99.90;;;;;;5150768;28;20096;-88
2022/07/17 01:16:55;;;;;;;0.30;0.20;;;11.20;99.90;;;;;;5133967;28;20531;-89
2022/07/17 01:19:22;;;;;;;0.10;0.10;;;11.10;99.90;;;;;;5151249;28;20429;-88
2022/07/17 01:21:50;;;;;;;0.03;0.03;;;11.10;99.90;;;;;;5134200;28;20126;-89
2022/07/17 01:24:17;;;;;;;0.10;0.10;;;11.00;99.90;;;;;;5134103;28;20036;-88
2022/07/17 01:26:46;;;;;;;0.20;0.20;;;11.00;99.90;;;;;;5133990;28;20036;-89
2022/07/17 01:29:14;;;;;;;0.35;0.20;;;11.00;99.90;;;;;;5151100;28;20047;-89
2022/07/17 01:31:41;;;;;;;0.10;0.10;;;11.00;99.90;;;;;;5134051;28;20043;-88
2022/07/17 01:34:10;;;;;;;0.10;0.10;;;10.90;99.90;;;;;;5150664;28;20545;-89
2022/07/17 01:36:37;;;;;;;0.20;0.20;;;10.90;99.90;;;;;;5133786;28;20047;-89
2022/07/17 01:39:04;;;;;;;0.08;0.08;;;10.90;99.90;;;;;;5150058;28;20691;-88
2022/07/17 01:41:31;;;;;;;0.10;0.10;;;10.90;99.90;;;;;;5150674;28;20438;-88
2022/07/17 01:43:58;;;;;;;0.17;0.17;;;10.90;99.90;;;;;;5150453;28;20085;-88
2022/07/17 01:46:25;;;;;;;0.20;0.20;;;10.80;99.90;;;;;;5133477;28;20502;-89
2022/07/17 01:48:52;;;;;;;0.10;0.10;;;10.80;99.90;;;;;;5150765;28;20079;-88
2022/07/17 01:51:19;;;;;;;0.10;0.10;;;10.80;99.90;;;;;;5116836;28;20066;-88
2022/07/17 01:53:45;;;;;;;0.13;0.10;;;10.80;99.90;;;;;;5133518;28;20437;-88
2022/07/17 01:56:12;;;;;;;0.32;0.20;;;10.80;99.90;;;;;;5133189;28;20127;-88
2022/07/17 01:58:38;;;;;;;0.20;0.20;;;10.70;99.90;;;;;;5150284;28;20386;-89
2022/07/17 02:01:05;;;;;;;0.28;0.20;;;10.70;99.90;;;;;;5150139;28;20128;-88
2022/07/17 02:03:32;;;;;;;0.10;0.10;;;10.70;99.90;;;;;;5167029;27;20042;-88
2022/07/17 02:05:59;;;;;;;0.20;0.20;;;10.70;99.90;;;;;;5133183;28;20039;-89
2022/07/17 02:08:25;;;;;;;0.20;0.20;;;10.70;99.90;;;;;;5149781;28;20077;-88
2022/07/17 02:10:52;;;;;;;0.35;0.35;;;10.70;99.90;;;;;;5150237;28;20035;-88
2022/07/17 02:13:19;;;;;;;0.17;0.17;;;10.70;99.90;;;;;;5149942;28;20400;-88
2022/07/17 02:15:45;;;;;;;0.10;0.10;;;10.70;99.90;;;;;;5166803;27;20545;-89
2022/07/17 02:18:12;;;;;;;0.17;0.17;;;10.80;99.90;;;;;;5132847;28;20043;-89
2022/07/17 02:20:39;;;;;;;0.20;0.20;;;10.80;99.90;;;;;;5149475;28;20036;-88
2022/07/17 02:23:05;;;;;;;0.43;0.20;;;10.80;99.90;;;;;;5133682;28;20043;-89
2022/07/17 02:25:32;;;;;;;0.20;0.20;;;10.90;99.90;;;;;;5150130;28;20555;-88
2022/07/17 02:27:59;;;;;;;0.43;0.30;;;10.80;99.90;;;;;;5133414;28;20130;-88
2022/07/17 02:30:25;;;;;;;0.10;0.10;;;10.80;99.90;;;;;;5149617;28;20396;-88
2022/07/17 02:32:52;;;;;;;0.10;0.10;;;10.80;99.90;;;;;;5133089;28;20441;-88
2022/07/17 02:35:19;;;;;;;0.20;0.20;;;10.80;99.90;;;;;;5149084;28;20048;-88
2022/07/17 02:37:45;;;;;;;0.20;0.20;;;10.80;99.90;;;;;;5132734;28;20051;-88
2022/07/17 02:40:12;;;;;;;0.17;0.17;;;10.80;99.90;;;;;;5132105;28;20036;-88
2022/07/17 02:42:39;;;;;;;0.10;0.10;;;10.80;99.90;;;;;;5149255;28;20040;-89
2022/07/17 02:45:07;;;;;;;0.10;0.10;;;10.80;99.90;;;;;;5115707;28;20072;-89
2022/07/17 02:47:35;;;;;;;0.22;0.20;;;10.80;99.90;;;;;;5115421;28;20411;-89
2022/07/17 02:50:05;;;;;;;0.35;0.20;;;10.80;99.90;;;;;;5132029;28;20043;-88
2022/07/17 02:52:32;;;;;;;0.15;0.15;;;10.80;99.90;;;;;;5132061;28;20074;-88
2022/07/17 02:54:58;;;;;;;0.25;0.20;;;10.80;99.90;;;;;;5098688;28;20035;-88
2022/07/17 02:57:25;;;;;;;0.10;0.10;;;10.80;99.90;;;;;;5115015;28;20039;-88
2022/07/17 02:59:52;;;;;;;0.10;0.10;;;10.70;99.90;;;;;;5098354;28;20057;-89
2022/07/17 03:02:19;;;;;;;0.10;0.10;;;10.70;99.90;;;;;;5114892;28;20032;-88
2022/07/17 03:04:45;;;;;;;0.10;0.10;;;10.70;99.90;;;;;;5115132;28;20043;-88
2022/07/17 03:07:12;;;;;;;0.10;0.10;;;10.70;99.90;;;;;;5114836;28;20039;-88
2022/07/17 03:09:39;;;;;;;0.28;0.22;;;10.70;99.90;;;;;;5114574;28;20104;-87
2022/07/17 03:12:06;;;;;;;0.30;0.30;;;10.80;99.90;;;;;;5131690;28;20048;-87
2022/07/17 03:14:33;;;;;;;0.13;0.13;;;10.70;99.90;;;;;;5115106;28;20495;-88
2022/07/17 03:16:59;;;;;;;0.15;0.15;;;10.70;99.90;;;;;;5114523;28;20126;-88
2022/07/17 03:19:26;;;;;;;0.10;0.10;;;10.70;99.90;;;;;;5131665;28;20042;-89
2022/07/17 03:21:53;;;;;;;0.20;0.20;;;10.70;99.90;;;;;;5148042;28;20075;-87
2022/07/17 03:24:19;;;;;;;0.10;0.10;;;10.70;99.90;;;;;;5165736;27;20039;-88
2022/07/17 03:26:46;;;;;;;0.20;0.20;;;10.60;99.90;;;;;;5131894;28;20035;-88
2022/07/17 03:29:17;;;;;;;0.10;0.10;;;10.60;99.90;;;;;;5131696;28;20438;-88
2022/07/17 03:31:44;;;;;;;0.10;0.10;;;10.60;99.90;;;;;;5165424;27;20554;-88
2022/07/17 03:34:11;;;;;;;0.00;0.00;;;10.60;99.90;;;;;;5148517;28;20107;-88
2022/07/17 03:36:38;;;;;;;0.10;0.10;;;10.50;99.90;;;;;;5131030;28;20130;-87
2022/07/17 03:39:05;;;;;;;0.10;0.10;;;10.50;99.90;;;;;;5164705;27;20396;-87
2022/07/17 03:41:32;;;;;;;0.15;0.15;;;10.50;99.90;;;;;;5147941;28;20035;-87
2022/07/17 03:43:59;;;;;;;0.10;0.10;;;10.50;99.90;;;;;;5147851;28;20042;-88
2022/07/17 03:46:26;;;;;;;0.17;0.17;;;10.50;99.90;;;;;;5131543;28;20123;-88
2022/07/17 03:48:52;;;;;;;0.15;0.15;;;10.50;99.90;;;;;;5165465;28;20529;-87
2022/07/17 03:51:19;;;;;;;0.10;0.10;;;10.50;99.90;;;;;;5148386;28;20040;-88
2022/07/17 03:53:46;;;;;;;0.10;0.10;;;10.50;99.90;;;;;;5131820;28;20130;-88
2022/07/17 03:56:12;;;;;;;0.47;0.15;;;10.60;99.90;;;;;;5148226;28;20039;-88
2022/07/17 03:58:39;;;;;;;0.20;0.15;;;10.60;99.90;;;;;;5130781;28;20408;-87
2022/07/17 04:01:06;;;;;;;0.10;0.10;;;10.70;99.90;;;;;;5148342;28;20042;-88
2022/07/17 04:03:33;;;;;;;0.00;0.00;;;10.70;99.90;;;;;;5147487;28;20039;-87
2022/07/17 04:05:59;;;;;;;0.10;0.10;;;10.70;99.90;;;;;;5165140;28;20039;-87
2022/07/17 04:08:26;;;;;;;0.10;0.10;;;10.80;99.90;;;;;;5165154;27;20051;-87
2022/07/17 04:10:53;;;;;;;0.10;0.10;;;10.80;99.90;;;;;;5131319;28;20043;-88
2022/07/17 04:13:19;;;;;;;0.05;0.05;;;10.90;99.90;;;;;;5131303;28;20040;-87
2022/07/17 04:15:52;;;;;;;0.13;0.10;;;11.00;99.90;;;;;;5130668;28;20042;-87
2022/07/17 04:18:20;;;;;;;0.10;0.10;;;11.10;99.90;;;;;;5131153;28;20050;-88
2022/07/17 04:20:48;;;;;;;0.10;0.10;;;11.20;99.90;;;;;;5147629;28;20042;-88
2022/07/17 04:23:16;;;;;;;0.10;0.10;;;11.20;99.90;;;;;;5131241;28;20048;-88
2022/07/17 04:25:43;;;;;;;0.10;0.10;;;11.20;99.90;;;;;;5131327;28;20039;-87
2022/07/17 04:28:10;;;;;;;0.25;0.10;;;11.30;99.90;;;;;;5148034;28;20036;-87
2022/07/17 04:30:37;;;;;;;0.20;0.20;;;11.30;99.90;;;;;;5165264;28;20036;-88
2022/07/17 04:33:04;;;;;;;0.10;0.10;;;11.40;99.90;;;;;;5131462;28;20035;-88
2022/07/17 04:35:31;;;;;;;0.30;0.30;;;11.40;99.90;;;;;;5167051;27;20063;-87
2022/07/17 04:37:58;;;;;;;0.10;0.10;;;11.50;99.90;;;;;;5151853;28;20051;-87
2022/07/17 04:40:25;;;;;;;0.10;0.10;;;11.50;99.90;;;;;;5134339;28;20039;-88
2022/07/17 04:42:51;;;;;;;0.20;0.20;;;11.60;99.90;;;;;;5168898;27;20032;-87
2022/07/17 04:45:18;;;;;;;0.20;0.20;;;11.60;99.90;;;;;;5117937;28;20035;-88
2022/07/17 04:47:45;;;;;;;0.10;0.08;;;11.60;99.90;;;;;;5101116;28;20127;-87
2022/07/17 04:50:12;;;;;;;0.10;0.10;;;11.70;99.90;;;;;;5101017;28;20475;-87
2022/07/17 04:52:38;;;;;;;0.25;0.10;;;11.80;99.90;;;;;;5100504;28;20068;-88
2022/07/17 04:55:06;;;;;;;0.10;0.10;;;11.80;99.90;;;;;;5133998;28;20028;-88
2022/07/17 04:57:32;;;;;;;0.43;0.15;;;11.80;99.90;;;;;;5133949;28;20043;-88
2022/07/17 04:59:59;;;;;;;0.10;0.10;;;12.00;99.90;;;;;;5151135;28;20035;-88
2022/07/17 05:02:26;;;;;;;0.20;0.20;;;11.90;99.90;;;;;;5151273;28;20404;-87
2022/07/17 05:04:52;;;;;;;0.05;0.05;;;11.90;99.90;;;;;;5167812;27;20043;-87
2022/07/17 05:07:19;;;;;;;0.10;0.10;;;12.00;99.90;;;;;;5151589;28;20036;-87
2022/07/17 05:09:46;;;;;;;0.20;0.15;;;12.00;99.90;;;;;;5134149;28;20036;-88
2022/07/17 05:12:12;;;;;;;0.13;0.10;;;12.00;99.90;;;;;;5134479;28;20079;-88
2022/07/17 05:14:39;;;;;;;0.13;0.13;;;12.10;99.90;;;;;;5151120;28;20042;-88
2022/07/17 05:17:06;;;;;;;0.20;0.20;;;12.10;99.90;;;;;;5151232;28;20028;-88
2022/07/17 05:19:33;;;;;;;0.10;0.10;;;12.20;99.90;;;;;;5150603;28;20040;-88
2022/07/17 05:22:00;;;;;;;0.13;0.13;;;12.20;99.90;;;;;;5168425;27;20042;-88
2022/07/17 05:24:27;;;;;;;0.10;0.10;;;12.30;99.90;;;;;;5150913;28;20039;-88
2022/07/17 05:26:54;;;;;;;0.00;0.00;;;12.30;99.90;;;;;;5133730;28;20051;-88
2022/07/17 05:29:20;;;;;;;0.20;0.20;;;12.30;99.90;;;;;;5133661;28;20044;-88
2022/07/17 05:31:47;;;;;;;0.00;0.00;;;12.30;99.90;;;;;;5150964;28;20104;-88
2022/07/17 05:34:14;;;;;;;0.10;0.10;;;12.40;99.90;;;;;;5151139;28;20048;-88
2022/07/17 05:36:41;;;;;;;0.10;0.10;;;12.30;99.90;;;;;;5167275;27;20056;-88
2022/07/17 05:39:08;;;;;;;0.10;0.10;;;12.40;99.90;;;;;;5168473;27;20042;-89
2022/07/17 05:41:34;;;;;;;0.10;0.10;;;12.50;99.90;;;;;;5132998;28;20052;-88
2022/07/17 05:44:01;;;;;;;0.10;0.10;;;12.50;99.90;;;;;;5133967;28;20032;-89
2022/07/17 05:46:28;;;;;;;0.40;0.20;;;12.60;99.90;;;;;;5099745;28;20035;-89
2022/07/17 05:48:55;;;;;;;0.10;0.10;;;12.60;99.90;;;;;;5110001;28;20040;-89
2022/07/17 05:51:22;;;;;;;0.10;0.10;;;12.60;99.90;;;;;;5104990;28;20036;-88
2022/07/17 05:53:48;;;;;;;0.10;0.10;;;12.80;99.90;;;;;;5138390;28;20097;-89
2022/07/17 05:56:15;;;;;;;0.10;0.10;;;12.90;99.90;;;;;;5112690;28;20085;-89
2022/07/17 05:58:42;;;;;;;0.10;0.10;;;12.90;99.90;;;;;;5107375;28;20062;-89
2022/07/17 06:01:09;;;;;;;0.43;0.28;;;13.00;99.90;;;;;;5143455;28;20039;-89
2022/07/17 06:03:35;;;;;;;0.10;0.10;;;13.10;99.90;;;;;;5113458;28;20489;-89
2022/07/17 06:06:02;;;;;;;0.10;0.10;;;13.10;99.90;;;;;;5111104;28;20515;-88
2022/07/17 06:08:29;;;;;;;0.10;0.10;;;13.20;99.90;;;;;;5119503;28;20051;-89
2022/07/17 06:10:55;;;;;;;0.32;0.30;;;13.20;99.90;;;;;;5115901;28;20404;-88
2022/07/17 06:13:22;;;;;;;0.10;0.10;;;13.30;99.90;;;;;;5095721;28;20051;-89
2022/07/17 06:15:49;;;;;;;0.10;0.10;;;13.40;99.90;;;;;;5133400;28;20039;-89
2022/07/17 06:18:15;;;;;;;0.10;0.10;;;13.40;99.90;;;;;;5167260;27;20442;-89
2022/07/17 06:20:42;;;;;;;0.20;0.20;;;13.50;99.90;;;;;;5132179;28;20088;-88
2022/07/17 06:23:09;;;;;;;0.10;0.10;;;13.60;99.90;;;;;;5129344;28;20040;-88
2022/07/17 06:25:35;;;;;;;0.10;0.10;;;13.70;99.90;;;;;;5112579;28;20040;-88
2022/07/17 06:28:02;;;;;;;0.13;0.10;;;13.90;99.90;;;;;;5095352;28;20051;-87
2022/07/17 06:30:29;;;;;;;0.10;0.10;;;14.00;99.90;;;;;;5137445;28;20119;-89
2022/07/17 06:32:56;;;;;;;0.10;0.10;;;14.10;99.90;;;;;;5137325;28;20039;-88
2022/07/17 06:35:22;;;;;;;0.05;0.05;;;14.20;99.90;;;;;;5136782;28;20043;-90
2022/07/17 06:37:49;;;;;;;0.10;0.10;;;14.20;99.90;;;;;;5130814;28;20093;-90
2022/07/17 06:40:16;;;;;;;0.00;0.00;;;14.30;99.90;;;;;;5112893;28;20568;-90
2022/07/17 06:42:42;;;;;;;0.17;0.17;;;14.30;99.90;;;;;;5123043;28;20044;-90
2022/07/17 06:45:09;;;;;;;0.17;0.13;;;14.40;99.90;;;;;;5123778;28;20074;-91
2022/07/17 06:47:38;;;;;;;0.17;0.10;;;14.40;99.90;;;;;;5099551;28;20067;-89
2022/07/17 06:50:06;;;;;;;0.20;0.10;;;14.50;99.90;;;;;;5149940;28;20036;-90
2022/07/17 06:52:32;;;;;;;0.03;0.03;;;14.60;99.90;;;;;;5149343;28;20122;-90
2022/07/17 06:54:59;;;;;;;0.57;0.22;;;14.80;99.90;;;;;;5118470;28;20116;-91
2022/07/17 06:57:26;;;;;;;0.10;0.10;;;15.00;99.90;;;;;;5098744;28;20092;-91
2022/07/17 06:59:52;;;;;;;0.10;0.10;;;15.10;99.90;;;;;;5150192;28;20100;-90
2022/07/17 07:02:19;;;;;;;0.00;0.00;;;15.10;99.90;;;;;;5148877;28;20080;-90
2022/07/17 07:04:46;;;;;;;0.10;0.10;;;15.10;99.90;;;;;;5127719;28;20149;-90
2022/07/17 07:07:13;;;;;;;0.10;0.10;;;15.20;99.90;;;;;;5128996;28;20071;-91
2022/07/17 07:09:39;;;;;;;0.15;0.15;;;15.30;99.90;;;;;;5146365;27;20070;-92
2022/07/17 07:12:07;;;;;;;0.10;0.10;;;15.30;99.90;;;;;;5140734;28;20499;-90
2022/07/17 07:14:33;;;;;;;0.10;0.05;;;15.40;99.90;;;;;;5132209;28;20111;-91
2022/07/17 07:17:00;;;;;;;0.10;0.10;;;15.40;99.90;;;;;;5154311;27;20027;-89
2022/07/17 07:19:27;;;;;;;0.00;0.00;;;15.30;99.90;;;;;;5098997;28;20574;-92
2022/07/17 07:21:53;;;;;;;0.10;0.10;;;15.40;99.90;;;;;;5166133;27;20040;-90
2022/07/17 07:24:20;;;;;;;0.13;0.13;;;15.40;99.90;;;;;;5139882;28;20042;-91
2022/07/17 07:26:47;;;;;;;0.10;0.10;;;15.50;99.90;;;;;;5149143;28;20538;-84
2022/07/17 07:29:13;;;;;;;0.08;0.08;;;15.50;99.90;;;;;;5130795;28;20434;-82
2022/07/17 07:31:40;;;;;;;0.13;0.10;;;15.60;99.90;;;;;;5130819;28;20044;-83
2022/07/17 07:34:07;;;;;;;0.10;0.10;;;15.70;99.90;;;;;;5113809;28;20071;-85
2022/07/17 07:36:34;;;;;;;0.10;0.10;;;15.80;99.90;;;;;;5147457;27;20058;-85
2022/07/17 07:39:01;;;;;;;0.00;0.00;;;15.80;99.90;;;;;;5130608;28;20036;-85
2022/07/17 07:41:27;;;;;;;0.20;0.10;;;15.90;99.90;;;;;;5130457;28;20035;-85
2022/07/17 07:43:54;;;;;;;0.00;0.00;;;16.00;99.90;;;;;;5148002;28;20039;-89
2022/07/17 07:46:21;;;;;;;0.00;0.00;;;16.20;99.90;;;;;;5158659;27;20118;-89
2022/07/17 07:48:47;;;;;;;0.10;0.10;;;16.20;99.90;;;;;;5123492;28;20036;-91
2022/07/17 07:51:14;;;;;;;0.00;0.00;;;16.30;99.90;;;;;;5111339;28;20036;-90
2022/07/17 07:53:42;;;;;;;0.10;0.10;;;16.40;99.90;;;;;;5142202;28;20520;-91
2022/07/17 07:56:09;;;;;;;0.00;0.00;;;16.30;99.90;;;;;;5131474;28;20519;-94
2022/07/17 07:58:39;;;;;;;0.20;0.10;;;16.50;99.90;;;;;;5149044;28;20032;-91
2022/07/17 08:01:05;;;;;;;0.00;0.00;;;16.50;99.90;;;;;;5132384;28;20043;-92
2022/07/17 08:03:32;;;;;;;0.10;0.10;;;16.60;99.90;;;;;;5131395;28;20040;-89
2022/07/17 08:05:59;;;;;;;0.20;0.20;;;16.70;99.90;;;;;;5133868;28;20061;-88
2022/07/17 08:08:26;;;;;;;0.10;0.10;;;16.80;99.90;;;;;;5097997;28;20043;-83
2022/07/17 08:10:53;;;;;;;1.50;0.30;;;16.80;99.90;;;;;;5113441;28;20028;-83
2022/07/17 08:13:20;;;;;;;0.10;0.10;;;16.90;99.90;;;;;;5133221;28;20054;-82
2022/07/17 08:15:46;;;;;;;0.10;0.10;;;16.90;99.90;;;;;;5116295;28;20040;-84
2022/07/17 08:18:13;;;;;;;0.00;0.00;;;16.90;99.90;;;;;;5099670;28;20093;-84
2022/07/17 08:20:40;;;;;;;0.05;0.05;;;16.90;99.90;;;;;;5098579;28;20044;-82
2022/07/17 08:23:07;;;;;;;0.08;0.08;;;16.90;99.90;;;;;;5116753;28;20046;-84
2022/07/17 08:25:35;;;;;;;0.10;0.10;;;16.80;99.90;;;;;;5099547;28;20036;-83
2022/07/17 08:28:02;;;;;;;0.50;0.20;;;16.80;99.90;;;;;;5132935;28;20067;-82
2022/07/17 08:30:31;;;;;;;0.68;0.30;;;16.80;99.90;;;;;;5133487;28;20048;-83
2022/07/17 08:32:57;;;;;;;0.30;0.20;;;16.90;99.90;;;;;;5116953;28;20399;-83
2022/07/17 08:35:24;;;;;;;0.10;0.10;;;17.00;99.90;;;;;;5117067;28;20047;-83
2022/07/17 08:37:52;;;;;;;0.00;0.00;;;17.10;99.90;;;;;;5116912;28;20493;-82
2022/07/17 08:40:26;;;;;;;0.10;0.10;;;17.30;99.90;;;;;;5133100;28;20035;-82
2022/07/17 08:42:58;;;;;;;0.05;0.05;;;17.50;99.90;;;;;;5130124;28;20062;-85
2022/07/17 08:45:25;;;;;;;0.10;0.10;;;17.60;99.90;;;;;;5130516;28;20494;-82
2022/07/17 08:47:54;;;;;;;0.03;0.03;;;17.90;99.90;;;;;;5133427;28;20032;-82
2022/07/17 08:50:29;;;;;;;0.32;0.20;;;17.90;99.90;;;;;;5132834;28;20047;-82
2022/07/17 08:52:56;;;;;;;0.15;0.13;;;18.00;99.90;;;;;;5150419;28;20044;-84
2022/07/17 08:55:22;;;;;;;0.38;0.30;;;18.00;99.90;;;;;;5132796;28;20040;-83
2022/07/17 08:57:49;;;;;;;0.00;0.00;;;18.00;99.90;;;;;;5116036;28;20437;-83
2022/07/17 09:00:20;;;;;;;0.47;0.20;;;18.10;99.90;;;;;;5139425;28;20127;-83
2022/07/17 09:02:54;;;;;;;0.10;0.10;;;18.10;99.90;;;;;;5132687;28;20043;-83
2022/07/17 09:05:22;;;;;;;0.75;0.30;;;18.30;99.90;;;;;;5132340;28;20556;-83
2022/07/17 09:07:49;;;;;;;0.10;0.08;;;18.40;99.90;;;;;;5116536;28;20143;-85
2022/07/17 09:10:16;;;;;;;0.20;0.20;;;18.50;99.90;;;;;;5132593;28;20073;-85
2022/07/17 09:12:43;;;;;;;0.10;0.10;;;18.50;99.90;;;;;;5116474;28;20036;-83
2022/07/17 09:15:17;;;;;;;0.17;0.10;;;18.60;99.90;;;;;;5149583;28;20069;-84
2022/07/17 09:17:52;;;;;;;0.17;0.10;;;18.60;99.90;;;;;;5116223;28;20066;-84
2022/07/17 09:20:20;;;;;;;0.20;0.20;;;18.70;99.90;;;;;;5111425;28;20035;-84
2022/07/17 09:23:04;;;;;;;0.10;0.10;;;18.90;99.90;;;;;;5112512;28;20043;-83
2022/07/17 09:25:35;;;;;;;0.10;0.10;;;19.10;99.90;;;;;;5132862;28;20155;-84
2022/07/17 09:28:04;;;;;;;0.22;0.10;;;19.10;99.90;;;;;;5116065;28;20059;-84
2022/07/17 09:30:32;;;;;;;0.10;0.10;;;19.20;99.90;;;;;;5132661;28;20039;-83
2022/07/17 09:32:59;;;;;;;0.03;0.03;;;19.20;99.90;;;;;;5132757;28;20093;-84
2022/07/17 09:35:27;;;;;;;0.10;0.10;;;19.20;99.90;;;;;;5132094;28;20055;-84
2022/07/17 09:37:54;;;;;;;0.68;0.20;;;19.10;99.90;;;;;;5111855;28;20038;-83
2022/07/17 09:43:08;;;;;;;0.10;0.10;;;19.20;99.90;;;;;;5134426;28;20540;-84
2022/07/17 09:45:35;;;;;;;0.65;0.20;;;19.30;99.90;;;;;;5132452;28;20028;-84
2022/07/17 09:48:03;;;;;;;0.00;0.00;;;19.40;99.90;;;;;;5132181;28;20035;-84
2022/07/17 09:50:33;;;;;;;0.03;0.03;;;19.60;99.90;;;;;;5147751;28;20042;-84
2022/07/17 09:53:00;;;;;;;0.10;0.10;;;19.60;99.90;;;;;;5132135;28;20060;-84
2022/07/17 09:55:31;;;;;;;0.75;0.20;;;19.90;99.90;;;;;;5125213;28;20040;-84
2022/07/17 09:58:02;;;;;;;0.13;0.13;;;20.10;99.90;;;;;;5132311;28;20114;-83
2022/07/17 10:00:29;;;;;;;0.10;0.10;;;20.30;99.90;;;;;;5131767;28;20035;-84
2022/07/17 10:02:56;;;;;;;0.43;0.20;;;20.40;99.90;;;;;;5131942;28;20036;-82
2022/07/17 10:05:24;;;;;;;0.50;0.30;;;20.40;99.90;;;;;;5131972;28;20036;-84
2022/07/17 10:07:50;;;;;;;0.10;0.10;;;20.50;99.90;;;;;;5115053;28;20032;-83
2022/07/17 10:10:19;;;;;;;0.00;0.00;;;20.80;99.90;;;;;;5114888;28;20058;-83
2022/07/17 10:12:48;;;;;;;0.75;0.15;;;20.80;99.90;;;;;;5114861;28;20039;-84
2022/07/17 10:15:16;;;;;;;0.10;0.10;;;21.00;99.90;;;;;;5114498;28;20130;-82
2022/07/17 10:17:43;;;;;;;0.03;0.03;;;20.90;99.90;;;;;;5131656;28;20049;-84
2022/07/17 10:20:10;;;;;;;0.15;0.15;;;20.70;99.90;;;;;;5145804;28;21450;-83
2022/07/17 10:22:45;;;;;;;0.10;0.10;;;20.40;99.90;;;;;;5131320;28;20043;-84
2022/07/17 10:25:17;;;;;;;0.20;0.10;;;20.30;99.90;;;;;;5165549;27;20062;-84
2022/07/17 10:27:49;;;;;;;0.13;0.10;;;20.10;99.90;;;;;;5131459;28;20035;-84
2022/07/17 10:30:27;;;;;;;0.28;0.13;;;20.10;99.90;;;;;;5131179;28;20088;-83
2022/07/17 10:32:59;;;;;;;0.28;0.20;;;20.10;99.90;;;;;;5165283;27;20039;-83
2022/07/17 10:35:28;;;;;;;0.60;0.15;;;20.00;99.90;;;;;;5119576;28;20079;-83
2022/07/17 10:38:12;;;;;;;0.30;0.13;;;20.00;99.90;;;;;;5132630;28;20036;-83
2022/07/17 10:40:39;;;;;;;0.30;0.10;;;20.00;99.90;;;;;;5148347;28;20039;-82
2022/07/17 10:43:08;;;;;;;0.20;0.20;;;20.20;99.90;;;;;;5149235;28;20027;-85
2022/07/17 10:45:39;;;;;;;0.40;0.20;;;20.50;99.90;;;;;;5130993;28;20036;-88
2022/07/17 10:48:11;;;;;;;0.50;0.20;;;20.80;99.90;;;;;;5109946;28;20036;-90
2022/07/17 10:50:42;;;;;;;0.13;0.10;;;20.90;99.90;;;;;;5132092;28;20039;-92
2022/07/17 10:53:33;;;;;;;0.17;0.10;;;21.20;99.90;;;;;;5132767;28;20365;-93
2022/07/17 10:56:08;;;;;;;0.10;0.10;;;21.30;99.90;;;;;;5132058;28;20048;-89
2022/07/17 10:58:42;;;;;;;;;;;21.50;99.90;;;;;;5145028;28;20063;-92
2022/07/17 11:01:24;;;;;;;1.45;0.30;;;21.70;99.90;;;;;;5132445;28;20002;-92
2022/07/17 11:03:56;;;;;;;0.32;0.20;;;22.00;99.90;;;;;;5111816;28;20047;-91
2022/07/17 11:06:24;;;;;;;0.30;0.17;;;22.30;99.90;;;;;;5111921;28;20047;-88
2022/07/17 11:08:57;;;;;;;0.10;0.10;;;22.30;99.90;;;;;;5124839;28;20524;-93
2022/07/17 11:11:48;;;;;;;0.10;0.10;;;22.10;99.90;;;;;;5121493;28;20077;-88
2022/07/17 11:14:18;;;;;;;0.10;0.10;;;21.90;99.90;;;;;;5132055;28;20176;-94
2022/07/17 11:16:55;;;;;;;0.20;0.20;;;22.00;99.90;;;;;;5143587;28;20040;-95
2022/07/17 11:19:21;;;;;;;0.10;0.10;;;22.10;99.90;;;;;;5131513;28;20127;-89
2022/07/17 11:21:49;;;;;;;0.10;0.10;;;22.00;99.90;;;;;;5132009;28;20505;-89
2022/07/17 11:24:16;;;;;;;0.20;0.20;;;21.90;99.90;;;;;;5114837;28;20492;-92
2022/07/17 11:26:46;;;;;;;0.10;0.10;;;22.00;99.90;;;;;;5147304;28;20039;-95
2022/07/17 11:29:14;;;;;;;0.13;0.13;;;22.20;99.90;;;;;;5132410;28;20043;-88
2022/07/17 11:31:42;;;;;;;0.10;0.10;;;22.30;99.90;;;;;;5130561;28;20035;-88
2022/07/17 11:34:11;;;;;;;1.17;0.35;;;22.40;99.90;;;;;;5131821;28;20047;-91
2022/07/17 11:36:41;;;;;;;0.10;0.10;;;22.60;99.90;;;;;;5097666;28;20048;-92
2022/07/17 11:39:18;;;;;;;0.30;0.20;;;22.80;99.90;;;;;;5129428;28;20040;-87
2022/07/17 11:41:48;;;;;;;0.00;0.00;;;22.90;99.90;;;;;;5128816;28;20089;-89
2022/07/17 11:44:23;;;;;;;0.32;0.20;;;23.10;99.90;;;;;;5109193;28;20078;-88
2022/07/17 11:46:51;;;;;;;0.15;0.15;;;23.10;99.90;;;;;;5109713;28;20485;-89
2022/07/17 11:49:44;;;;;;;0.20;0.20;;;23.20;99.90;;;;;;5140040;28;20036;-88
2022/07/17 11:52:13;;;;;;;0.22;0.22;;;23.10;99.90;;;;;;5127829;28;20138;-87
2022/07/17 11:54:51;;;;;;;0.10;0.10;;;23.30;99.90;;;;;;5127485;28;20040;-88
2022/07/17 11:57:19;;;;;;;0.22;0.20;;;23.10;99.40;;;;;;5098522;28;20118;-89
2022/07/17 11:59:46;;;;;;;0.28;0.20;;;23.10;99.90;;;;;;5131611;28;20035;-93
2022/07/17 12:02:18;;;;;;;1.05;0.43;;;23.20;99.60;;;;;;5098262;28;20101;-92
2022/07/17 12:04:54;;;;;;;0.22;0.20;;;23.10;99.20;;;;;;5131834;28;20042;-92
2022/07/17 12:07:23;;;;;;;0.10;0.10;;;23.10;99.90;;;;;;5131486;28;20047;-89
2022/07/17 12:09:51;;;;;;;0.32;0.20;;;23.10;99.30;;;;;;5112302;28;20036;-89
2022/07/17 12:12:23;;;;;;;0.30;0.20;;;23.20;99.90;;;;;;5151335;28;20035;-89
2022/07/17 12:15:00;;;;;;;0.20;0.20;;;23.20;99.50;;;;;;5110834;28;20044;-93
2022/07/17 12:17:38;;;;;;;0.08;0.08;;;23.20;99.90;;;;;;5131041;28;20519;-90
2022/07/17 12:20:08;;;;;;;0.32;0.28;;;23.30;99.70;;;;;;5147987;28;20040;-93
2022/07/17 12:22:48;;;;;;;0.25;0.20;;;23.30;99.80;;;;;;5131533;28;20039;-93
2022/07/17 12:25:26;;;;;;;0.17;0.13;;;23.20;98.70;;;;;;5111964;28;20489;-89
2022/07/17 12:27:52;;;;;;;0.10;0.10;;;23.10;98.60;;;;;;5128147;28;20080;-89
2022/07/17 12:30:20;;;;;;;0.20;0.20;;;23.10;99.50;;;;;;5142237;28;20458;-89
2022/07/17 12:32:49;;;;;;;0.20;0.20;;;23.20;99.30;;;;;;5151315;28;20043;-88
2022/07/17 12:35:16;;;;;;;0.10;0.10;;;23.20;99.30;;;;;;5130640;28;20680;-86
2022/07/17 12:37:43;;;;;;;0.22;0.20;;;23.30;99.90;;;;;;5096457;28;20159;-86
2022/07/17 12:40:10;;;;;;;0.30;0.30;;;23.40;99.50;;;;;;5096549;28;20078;-88
2022/07/17 12:42:36;;;;;;;0.17;0.17;;;23.40;99.90;;;;;;5112396;28;20042;-85
2022/07/17 12:45:04;;;;;;;0.30;0.20;;;23.50;99.70;;;;;;5113052;28;20118;-87
2022/07/17 12:47:31;;;;;;;2.15;0.43;;;23.50;99.90;;;;;;5113128;28;20046;-86
2022/07/17 12:49:57;;;;;;;0.20;0.20;;;23.60;99.90;;;;;;5113142;28;20496;-88
2022/07/17 12:52:26;;;;;;;0.20;0.20;;;23.70;99.90;;;;;;5096678;28;20044;-87
2022/07/17 12:54:53;;;;;;;0.10;0.10;;;23.70;99.90;;;;;;5124720;28;20050;-86